createdAt,value
2018-08-23T00:00:43.096Z,101088.45
2018-08-23T00:03:17.715Z,101083.41
2018-08-23T00:05:54.338Z,101080.16
2018-08-23T00:08:24.529Z,101081.67
2018-08-23T00:10:54.621Z,101079.13
2018-08-23T00:13:24.132Z,101075.23
2018-08-23T00:15:53.869Z,101071.63
2018-08-23T00:18:23.138Z,101073.07
2018-08-23T00:20:52.440Z,101065.02
2018-08-23T00:23:22.775Z,101070.92
2018-08-23T00:25:52.770Z,101071.27
2018-08-23T00:28:22.180Z,101062.34
2018-08-23T00:30:51.651Z,101058.50
2018-08-23T00:33:20.917Z,101057.69
2018-08-23T00:35:50.324Z,101053.20
2018-08-23T00:38:19.601Z,101055.81
2018-08-23T00:40:48.861Z,101054.80
2018-08-23T00:43:18.257Z,101054.21
2018-08-23T00:45:47.719Z,101050.98
2018-08-23T00:48:16.969Z,101049.58
2018-08-23T00:51:21.867Z,101042.20
2018-08-23T00:53:56.410Z,101041.09
2018-08-23T00:56:25.728Z,101044.75
2018-08-23T00:58:59.085Z,101052.58
2018-08-23T01:01:28.527Z,101048.20
2018-08-23T01:03:57.819Z,101041.95
2018-08-23T01:06:40.385Z,101035.85
2018-08-23T01:09:11.332Z,101032.98
2018-08-23T01:11:40.534Z,101033.84
2018-08-23T01:14:10.157Z,101036.27
2018-08-23T01:16:39.378Z,101029.70
2018-08-23T01:19:14.109Z,101033.09
2018-08-23T01:21:49.579Z,101033.55
2018-08-23T01:24:19.009Z,101036.28
2018-08-23T01:26:48.623Z,101037.00
2018-08-23T01:29:30.070Z,101033.05
2018-08-23T01:32:13.096Z,101031.88
2018-08-23T01:34:42.394Z,101020.72
2018-08-23T01:37:13.862Z,101023.00
2018-08-23T01:39:43.129Z,101024.00
2018-08-23T01:42:12.524Z,101025.52
2018-08-23T01:44:42.760Z,101016.05
2018-08-23T01:47:12.212Z,101009.78
2018-08-23T01:49:41.657Z,101009.78
2018-08-23T01:52:11.259Z,101006.73
2018-08-23T01:54:40.497Z,101001.91
2018-08-23T01:57:09.920Z,100999.81
2018-08-23T01:59:39.149Z,101000.43
2018-08-23T02:02:13.844Z,100993.31
2018-08-23T02:04:43.253Z,100993.96
2018-08-23T02:07:12.596Z,100988.84
2018-08-23T02:09:42.218Z,100995.60
2018-08-23T02:12:11.451Z,100993.31
2018-08-23T02:14:47.380Z,100998.78
2018-08-23T02:17:16.866Z,100988.91
2018-08-23T02:19:49.410Z,100989.42
2018-08-23T02:22:18.881Z,100989.23
2018-08-23T02:24:49.183Z,100987.30
2018-08-23T02:27:19.840Z,100979.34
2018-08-23T02:29:49.588Z,100981.30
2018-08-23T02:32:19.182Z,100979.04
2018-08-23T02:34:48.996Z,100979.23
2018-08-23T02:37:18.715Z,100979.61
2018-08-23T02:39:48.125Z,100974.95
2018-08-23T02:42:19.137Z,100973.16
2018-08-23T02:44:48.582Z,100982.81
2018-08-23T02:47:18.043Z,100976.65
2018-08-23T02:49:47.723Z,100975.41
2018-08-23T02:52:17.118Z,100971.86
2018-08-23T02:54:46.487Z,100972.91
2018-08-23T02:57:16.114Z,100973.70
2018-08-23T02:59:45.550Z,100970.56
2018-08-23T03:02:15.457Z,100966.36
2018-08-23T03:04:44.880Z,100968.19
2018-08-23T03:07:14.258Z,100972.14
2018-08-23T03:09:45.015Z,100973.95
2018-08-23T03:12:20.401Z,100972.14
2018-08-23T03:14:49.807Z,100973.98
2018-08-23T03:17:22.271Z,100974.45
2018-08-23T03:20:26.591Z,100971.75
2018-08-23T03:22:56.916Z,100969.39
2018-08-23T03:25:26.757Z,100965.95
2018-08-23T03:27:56.548Z,100963.99
2018-08-23T03:30:26.190Z,100966.11
2018-08-23T03:32:55.515Z,100966.61
2018-08-23T03:35:25.070Z,100975.64
2018-08-23T03:37:54.387Z,100964.94
2018-08-23T03:40:23.773Z,100963.34
2018-08-23T03:42:53.110Z,100969.01
2018-08-23T03:45:28.456Z,100968.53
2018-08-23T03:47:57.726Z,100965.67
2018-08-23T03:50:27.041Z,100961.75
2018-08-23T03:52:57.303Z,100962.59
2018-08-23T03:55:27.021Z,100952.76
2018-08-23T03:58:03.168Z,100957.98
2018-08-23T04:00:37.965Z,100953.42
2018-08-23T04:03:14.085Z,100955.20
2018-08-23T04:05:43.388Z,100953.35
2018-08-23T04:08:13.306Z,100959.07
2018-08-23T04:10:42.653Z,100949.13
2018-08-23T04:13:12.189Z,100948.63
2018-08-23T04:15:41.416Z,100947.94
2018-08-23T04:18:16.930Z,100945.50
2018-08-23T04:20:57.636Z,100949.23
2018-08-23T04:23:26.966Z,100951.02
2018-08-23T04:25:56.244Z,100945.52
2018-08-23T04:28:25.528Z,100939.08
2018-08-23T04:30:55.203Z,100945.06
2018-08-23T04:33:24.502Z,100943.84
2018-08-23T04:35:53.866Z,100944.69
2018-08-23T04:38:24.392Z,100943.16
2018-08-23T04:40:58.434Z,100943.84
2018-08-23T04:43:27.953Z,100947.27
2018-08-23T04:45:57.285Z,100940.69
2018-08-23T04:48:26.634Z,100942.22
2018-08-23T04:50:56.166Z,100937.88
2018-08-23T04:53:26.381Z,100938.75
2018-08-23T04:55:55.616Z,100932.14
2018-08-23T04:58:25.291Z,100938.08
2018-08-23T05:00:54.553Z,100929.83
2018-08-23T05:03:23.935Z,100931.81
2018-08-23T05:05:53.470Z,100927.39
2018-08-23T05:08:22.764Z,100935.52
2018-08-23T05:10:52.094Z,100930.52
2018-08-23T05:13:21.547Z,100927.15
2018-08-23T05:15:50.864Z,100920.93
2018-08-23T05:18:20.782Z,100918.36
2018-08-23T05:20:50.305Z,100917.05
2018-08-23T05:23:20.545Z,100923.88
2018-08-23T05:25:49.805Z,100922.13
2018-08-23T05:28:20.680Z,100916.20
2018-08-23T05:30:50.425Z,100922.19
2018-08-23T05:33:21.122Z,100917.20
2018-08-23T05:35:50.610Z,100923.34
2018-08-23T05:38:20.604Z,100919.41
2018-08-23T05:40:55.350Z,100923.30
2018-08-23T05:43:24.636Z,100918.61
2018-08-23T05:45:57.063Z,100920.68
2018-08-23T05:48:32.520Z,100921.36
2018-08-23T05:51:04.820Z,100922.33
2018-08-23T05:53:38.320Z,100932.84
2018-08-23T05:56:08.283Z,100924.54
2018-08-23T05:58:37.885Z,100919.33
2018-08-23T06:01:07.482Z,100924.25
2018-08-23T06:03:37.858Z,100920.73
2018-08-23T06:06:07.625Z,100923.14
2018-08-23T06:08:37.547Z,100920.12
2018-08-23T06:11:11.425Z,100925.37
2018-08-23T06:13:41.030Z,100923.52
2018-08-23T06:16:10.318Z,100923.86
2018-08-23T06:18:39.850Z,100918.13
2018-08-23T06:21:09.174Z,100914.59
2018-08-23T06:24:01.794Z,100915.10
2018-08-23T06:26:43.759Z,100911.94
2018-08-23T06:29:17.661Z,100909.22
2018-08-23T06:31:56.200Z,100909.73
2018-08-23T06:34:27.045Z,100907.70
2018-08-23T06:36:56.341Z,100908.48
2018-08-23T06:39:26.075Z,100916.80
2018-08-23T06:41:57.804Z,100900.02
2018-08-23T06:44:43.710Z,100902.39
2018-08-23T06:47:15.592Z,100898.49
2018-08-23T06:49:46.593Z,100891.08
2018-08-23T06:52:27.219Z,100897.86
2018-08-23T06:54:56.807Z,100894.63
2018-08-23T06:57:27.761Z,100895.48
2018-08-23T06:59:57.341Z,100892.78
2018-08-23T07:02:26.670Z,100894.48
2018-08-23T07:04:56.164Z,100897.89
2018-08-23T07:07:25.519Z,100892.13
2018-08-23T07:09:55.061Z,100889.73
2018-08-23T07:12:24.580Z,100890.41
2018-08-23T07:14:53.932Z,100877.84
2018-08-23T07:17:26.483Z,100881.57
2018-08-23T07:19:55.843Z,100883.98
2018-08-23T07:22:26.206Z,100877.09
2018-08-23T07:24:57.034Z,100879.06
2018-08-23T07:27:26.333Z,100885.31
2018-08-23T07:29:57.887Z,100880.94
2018-08-23T07:32:30.326Z,100886.91
2018-08-23T07:35:04.374Z,100882.19
2018-08-23T07:37:34.966Z,100884.93
2018-08-23T07:40:09.449Z,100883.56
2018-08-23T07:42:39.855Z,100885.63
2018-08-23T07:45:09.978Z,100881.50
2018-08-23T07:47:41.161Z,100879.83
2018-08-23T07:50:10.587Z,100884.19
2018-08-23T07:52:51.933Z,100882.14
2018-08-23T07:55:21.235Z,100876.38
2018-08-23T07:57:50.701Z,100876.14
2018-08-23T08:00:31.819Z,100870.16
2018-08-23T08:03:01.263Z,100872.91
2018-08-23T08:05:35.047Z,100873.91
2018-08-23T08:08:04.469Z,100868.80
2018-08-23T08:10:37.103Z,100868.56
2018-08-23T08:13:06.678Z,100868.56
2018-08-23T08:15:36.009Z,100870.22
2018-08-23T08:18:20.720Z,100873.27
2018-08-23T08:20:56.193Z,100871.52
2018-08-23T08:23:25.723Z,100879.04
2018-08-23T08:25:55.286Z,100877.98
2018-08-23T08:28:24.980Z,100869.80
2018-08-23T08:30:59.961Z,100873.14
2018-08-23T08:33:33.738Z,100875.22
2018-08-23T08:36:04.025Z,100874.37
2018-08-23T08:38:33.885Z,100883.97
2018-08-23T08:41:03.124Z,100877.37
2018-08-23T08:43:32.397Z,100868.70
2018-08-23T08:46:03.530Z,100874.47
2018-08-23T08:48:33.941Z,100875.69
2018-08-23T08:51:32.117Z,100879.40
2018-08-23T08:54:03.172Z,100872.45
2018-08-23T08:56:37.757Z,100867.75
2018-08-23T08:59:07.043Z,100863.78
2018-08-23T09:01:36.709Z,100861.66
2018-08-23T09:04:06.094Z,100863.62
2018-08-23T09:06:45.782Z,100863.38
2018-08-23T09:09:34.812Z,100863.13
2018-08-23T09:12:05.457Z,100851.59
2018-08-23T09:14:35.418Z,100854.27
2018-08-23T09:17:21.307Z,100842.42
2018-08-23T09:20:01.275Z,100838.07
2018-08-23T09:22:38.354Z,100832.84
2018-08-23T09:25:09.824Z,100829.84
2018-08-23T09:27:39.370Z,100824.26
2018-08-23T09:30:14.674Z,100818.88
2018-08-23T09:32:44.500Z,100820.40
2018-08-23T09:35:14.070Z,100817.50
2018-08-23T09:37:43.518Z,100813.42
2018-08-23T09:40:13.636Z,100803.41
2018-08-23T09:42:43.029Z,100795.91
2018-08-23T09:45:16.196Z,100801.55
2018-08-23T09:47:45.733Z,100797.01
2018-08-23T09:50:15.270Z,100799.73
2018-08-23T09:52:50.035Z,100794.73
2018-08-23T09:55:20.983Z,100783.94
2018-08-23T09:57:50.417Z,100784.46
2018-08-23T10:01:28.886Z,100781.72
2018-08-23T10:04:03.661Z,100780.00
2018-08-23T10:06:38.177Z,100766.44
2018-08-23T10:09:16.398Z,100765.92
2018-08-23T10:11:51.175Z,100770.55
2018-08-23T10:14:25.746Z,100767.40
2018-08-23T10:17:00.709Z,100769.31
2018-08-23T10:19:36.430Z,100764.64
2018-08-23T10:22:11.233Z,100762.02
2018-08-23T10:24:40.535Z,100760.27
2018-08-23T10:27:09.860Z,100753.25
2018-08-23T10:29:39.369Z,100755.63
2018-08-23T10:32:08.716Z,100743.53
2018-08-23T10:34:37.942Z,100743.47
2018-08-23T10:37:07.623Z,100746.32
2018-08-23T10:39:37.053Z,100738.80
2018-08-23T10:42:10.581Z,100734.52
2018-08-23T10:44:40.005Z,100738.37
2018-08-23T10:47:09.415Z,100738.30
2018-08-23T10:49:38.762Z,100735.65
2018-08-23T10:52:08.089Z,100732.40
2018-08-23T10:54:37.525Z,100736.39
2018-08-23T10:57:10.308Z,100734.78
2018-08-23T10:59:39.898Z,100736.78
2018-08-23T11:02:11.389Z,100732.16
2018-08-23T11:04:40.721Z,100726.55
2018-08-23T11:07:10.064Z,100724.95
2018-08-23T11:09:44.775Z,100724.51
2018-08-23T11:12:19.715Z,100731.02
2018-08-23T11:14:49.299Z,100725.57
2018-08-23T11:17:24.005Z,100721.52
2018-08-23T11:19:58.662Z,100726.09
2018-08-23T11:22:33.417Z,100721.58
2018-08-23T11:25:02.998Z,100721.09
2018-08-23T11:27:32.297Z,100711.18
2018-08-23T11:30:01.727Z,100712.48
2018-08-23T11:32:31.236Z,100712.00
2018-08-23T11:35:00.644Z,100707.38
2018-08-23T11:37:29.872Z,100704.30
2018-08-23T11:39:59.618Z,100711.64
2018-08-23T11:42:28.980Z,100704.39
2018-08-23T11:44:58.321Z,100708.88
2018-08-23T11:47:27.720Z,100707.17
2018-08-23T11:49:57.052Z,100707.03
2018-08-23T11:52:26.446Z,100701.05
2018-08-23T11:54:56.009Z,100704.00
2018-08-23T11:57:25.369Z,100701.80
2018-08-23T11:59:55.132Z,100705.30
2018-08-23T12:02:24.797Z,100701.37
2018-08-23T12:04:54.259Z,100694.45
2018-08-23T12:07:23.722Z,100701.67
2018-08-23T12:09:53.479Z,100702.30
2018-08-23T12:12:23.292Z,100697.93
2018-08-23T12:14:56.150Z,100700.88
2018-08-23T12:17:25.429Z,100701.02
2018-08-23T12:19:54.957Z,100690.23
2018-08-23T12:22:30.346Z,100687.00
2018-08-23T12:24:59.809Z,100683.31
2018-08-23T12:27:29.110Z,100671.70
2018-08-23T12:30:02.076Z,100677.05
2018-08-23T12:32:31.599Z,100667.04
2018-08-23T12:35:01.567Z,100669.93
2018-08-23T12:37:36.101Z,100666.59
2018-08-23T12:40:10.779Z,100665.27
2018-08-23T12:42:47.427Z,100672.91
2018-08-23T12:45:17.225Z,100670.28
2018-08-23T12:47:46.868Z,100668.65
2018-08-23T12:50:16.784Z,100672.38
2018-08-23T12:52:46.334Z,100666.20
2018-08-23T12:55:16.009Z,100660.63
2018-08-23T12:57:45.691Z,100659.72
2018-08-23T13:00:15.274Z,100662.59
2018-08-23T13:02:45.371Z,100661.77
2018-08-23T13:05:15.220Z,100657.64
2018-08-23T13:07:44.609Z,100665.06
2018-08-23T13:10:14.169Z,100656.94
2018-08-23T13:12:44.292Z,100655.03
2018-08-23T13:15:13.813Z,100650.46
2018-08-23T13:17:43.654Z,100650.74
2018-08-23T13:20:13.339Z,100654.36
2018-08-23T13:22:43.162Z,100645.59
2018-08-23T13:25:14.305Z,100644.70
2018-08-23T13:27:43.907Z,100644.59
2018-08-23T13:30:13.303Z,100644.20
2018-08-23T13:32:42.823Z,100644.84
2018-08-23T13:35:12.221Z,100641.25
2018-08-23T13:37:42.077Z,100634.66
2018-08-23T13:40:16.515Z,100632.59
2018-08-23T13:42:46.592Z,100637.95
2018-08-23T13:45:16.554Z,100637.28
2018-08-23T13:47:46.278Z,100638.41
2018-08-23T13:50:16.101Z,100639.84
2018-08-23T13:52:45.868Z,100645.88
2018-08-23T13:55:15.761Z,100637.18
2018-08-23T13:57:45.629Z,100631.42
2018-08-23T14:00:52.023Z,100627.28
2018-08-23T14:03:22.723Z,100632.86
2018-08-23T14:05:52.474Z,100626.25
2018-08-23T14:08:21.986Z,100629.91
2018-08-23T14:10:51.682Z,100631.23
2018-08-23T14:13:21.286Z,100630.88
2018-08-23T14:15:56.017Z,100628.34
2018-08-23T14:18:25.418Z,100626.62
2018-08-23T14:20:54.830Z,100624.27
2018-08-23T14:23:24.347Z,100627.33
2018-08-23T14:25:54.017Z,100624.41
2018-08-23T14:28:23.523Z,100619.97
2018-08-23T14:30:53.552Z,100628.09
2018-08-23T14:33:23.165Z,100622.46
2018-08-23T14:35:52.875Z,100619.06
2018-08-23T14:38:22.486Z,100615.69
2018-08-23T14:40:51.974Z,100620.83
2018-08-23T14:43:21.521Z,100614.17
2018-08-23T14:45:51.428Z,100615.55
2018-08-23T14:48:21.526Z,100629.75
2018-08-23T14:50:54.037Z,100620.27
2018-08-23T14:53:29.853Z,100620.75
2018-08-23T14:56:04.359Z,100624.98
2018-08-23T14:58:33.734Z,100618.38
2018-08-23T15:01:03.080Z,100617.18
2018-08-23T15:03:32.440Z,100613.34
2018-08-23T15:06:01.740Z,100615.84
2018-08-23T15:08:31.190Z,100616.25
2018-08-23T15:11:01.701Z,100618.18
2018-08-23T15:13:31.202Z,100604.28
2018-08-23T15:16:00.659Z,100613.44
2018-08-23T15:18:30.022Z,100598.83
2018-08-23T15:20:59.413Z,100597.05
2018-08-23T15:23:28.782Z,100592.93
2018-08-23T15:25:58.206Z,100593.53
2018-08-23T15:28:27.620Z,100599.14
2018-08-23T15:30:57.722Z,100591.20
2018-08-23T15:33:27.449Z,100598.36
2018-08-23T15:36:00.964Z,100586.69
2018-08-23T15:38:30.318Z,100592.63
2018-08-23T15:41:03.011Z,100600.29
2018-08-23T15:43:34.333Z,100596.92
2018-08-23T15:46:06.495Z,100596.30
2018-08-23T15:48:40.986Z,100587.46
2018-08-23T15:51:11.382Z,100586.84
2018-08-23T15:53:43.161Z,100589.16
2018-08-23T15:56:22.038Z,100588.04
2018-08-23T15:58:53.878Z,100588.56
2018-08-23T16:01:23.791Z,100585.17
2018-08-23T16:03:54.735Z,100592.27
2018-08-23T16:06:25.580Z,100581.66
2018-08-23T16:08:55.193Z,100583.97
2018-08-23T16:11:25.761Z,100586.49
2018-08-23T16:13:55.825Z,100583.97
2018-08-23T16:16:31.066Z,100577.25
2018-08-23T16:19:05.615Z,100577.38
2018-08-23T16:21:34.898Z,100570.88
2018-08-23T16:24:04.350Z,100570.67
2018-08-23T16:26:38.946Z,100570.58
2018-08-23T16:29:09.271Z,100569.52
2018-08-23T16:31:38.812Z,100567.59
2018-08-23T16:34:08.258Z,100569.47
2018-08-23T16:36:37.694Z,100568.42
2018-08-23T16:39:07.911Z,100558.30
2018-08-23T16:41:37.287Z,100560.76
2018-08-23T16:44:06.604Z,100560.97
2018-08-23T16:46:35.890Z,100556.56
2018-08-23T16:49:05.207Z,100558.20
2018-08-23T16:51:34.463Z,100557.47
2018-08-23T16:54:06.091Z,100554.80
2018-08-23T16:56:35.483Z,100555.81
2018-08-23T16:59:06.218Z,100560.38
2018-08-23T17:01:36.549Z,100558.34
2018-08-23T17:04:06.083Z,100553.70
2018-08-23T17:06:35.327Z,100553.81
2018-08-23T17:09:12.336Z,100548.92
2018-08-23T17:11:45.509Z,100540.73
2018-08-23T17:14:16.440Z,100538.96
2018-08-23T17:16:51.440Z,100536.06
2018-08-23T17:19:21.370Z,100536.59
2018-08-23T17:21:51.411Z,100529.77
2018-08-23T17:24:23.399Z,100528.33
2018-08-23T17:26:53.218Z,100527.35
2018-08-23T17:29:22.798Z,100521.27
2018-08-23T17:31:53.098Z,100519.68
2018-08-23T17:34:23.500Z,100515.02
2018-08-23T17:36:53.864Z,100511.09
2018-08-23T17:39:23.544Z,100507.84
2018-08-23T17:41:53.265Z,100511.61
2018-08-23T17:44:22.767Z,100508.88
2018-08-23T17:46:52.528Z,100508.73
2018-08-23T17:49:22.550Z,100502.22
2018-08-23T17:51:52.342Z,100502.02
2018-08-23T17:54:21.836Z,100498.77
2018-08-23T17:56:51.702Z,100503.30
2018-08-23T17:59:21.167Z,100494.27
2018-08-23T18:01:51.468Z,100484.14
2018-08-23T18:04:22.327Z,100494.83
2018-08-23T18:06:55.699Z,100493.94
2018-08-23T18:09:25.560Z,100492.09
2018-08-23T18:11:58.002Z,100488.56
2018-08-23T18:14:33.821Z,100491.02
2018-08-23T18:17:08.129Z,100497.81
2018-08-23T18:19:39.006Z,100498.10
2018-08-23T18:22:09.636Z,100499.43
2018-08-23T18:24:39.171Z,100501.43
2018-08-23T18:27:08.583Z,100499.43
2018-08-23T18:29:38.213Z,100495.98
2018-08-23T18:32:07.630Z,100491.45
2018-08-23T18:34:36.870Z,100486.33
2018-08-23T18:37:07.018Z,100486.59
2018-08-23T18:39:37.653Z,100492.94
2018-08-23T18:42:12.660Z,100494.44
2018-08-23T18:44:42.493Z,100497.56
2018-08-23T18:47:16.991Z,100498.03
2018-08-23T18:49:52.812Z,100497.83
2018-08-23T18:52:22.520Z,100502.61
2018-08-23T18:54:52.323Z,100494.52
2018-08-23T18:57:21.783Z,100500.61
2018-08-23T18:59:54.479Z,100497.25
2018-08-23T19:02:27.095Z,100496.41
2018-08-23T19:05:01.503Z,100491.48
2018-08-23T19:07:52.550Z,100485.76
2018-08-23T19:10:22.672Z,100493.36
2018-08-23T19:13:01.225Z,100492.19
2018-08-23T19:15:36.798Z,100491.14
2018-08-23T19:18:06.530Z,100490.63
2018-08-23T19:20:35.822Z,100486.73
2018-08-23T19:23:05.377Z,100487.38
2018-08-23T19:25:35.082Z,100495.63
2018-08-23T19:28:04.799Z,100488.95
2018-08-23T19:30:34.301Z,100483.97
2018-08-23T19:33:03.719Z,100485.27
2018-08-23T19:35:32.997Z,100486.70
2018-08-23T19:38:03.270Z,100483.50
2018-08-23T19:40:33.416Z,100485.96
2018-08-23T19:43:02.921Z,100477.36
2018-08-23T19:45:38.267Z,100474.48
2018-08-23T19:48:07.511Z,100475.39
2018-08-23T19:50:36.900Z,100478.05
2018-08-23T19:53:06.242Z,100476.11
2018-08-23T19:55:35.502Z,100470.73
2018-08-23T19:58:05.196Z,100469.89
2018-08-23T20:00:34.510Z,100471.48
2018-08-23T20:03:04.499Z,100468.88
2018-08-23T20:05:33.744Z,100471.09
2018-08-23T20:08:02.987Z,100467.42
2018-08-23T20:10:32.457Z,100464.58
2018-08-23T20:13:01.773Z,100459.52
2018-08-23T20:15:31.258Z,100455.14
2018-08-23T20:18:00.651Z,100457.54
2018-08-23T20:20:29.930Z,100451.52
2018-08-23T20:23:00.954Z,100456.30
2018-08-23T20:25:30.322Z,100451.90
2018-08-23T20:28:00.125Z,100455.16
2018-08-23T20:30:29.573Z,100449.91
2018-08-23T20:32:59.022Z,100442.41
2018-08-23T20:35:28.356Z,100444.70
2018-08-23T20:37:57.814Z,100440.55
2018-08-23T20:40:27.323Z,100439.53
2018-08-23T20:42:57.108Z,100436.50
2018-08-23T20:45:27.009Z,100441.66
2018-08-23T20:47:56.608Z,100441.28
2018-08-23T20:50:26.384Z,100431.82
2018-08-23T20:52:56.167Z,100432.66
2018-08-23T20:55:25.697Z,100429.19
2018-08-23T20:57:55.916Z,100428.23
2018-08-23T21:00:25.538Z,100420.78
2018-08-23T21:02:55.085Z,100421.38
2018-08-23T21:05:24.529Z,100412.42
2018-08-23T21:07:54.009Z,100410.94
2018-08-23T21:10:23.533Z,100410.27
2018-08-23T21:12:52.956Z,100402.01
2018-08-23T21:15:22.518Z,100411.19
2018-08-23T21:17:52.005Z,100413.88
2018-08-23T21:20:21.405Z,100408.98
2018-08-23T21:22:51.118Z,100420.73
2018-08-23T21:25:20.896Z,100413.64
2018-08-23T21:27:50.839Z,100417.42
2018-08-23T21:30:21.348Z,100414.53
2018-08-23T21:32:50.971Z,100414.77
2018-08-23T21:35:20.648Z,100411.69
2018-08-23T21:37:50.145Z,100405.09
2018-08-23T21:40:20.205Z,100403.45
2018-08-23T21:42:49.915Z,100402.29
2018-08-23T21:45:19.867Z,100398.55
2018-08-23T21:47:49.822Z,100399.25
2018-08-23T21:50:19.574Z,100393.68
2018-08-23T21:52:49.202Z,100389.61
2018-08-23T21:55:19.204Z,100389.14
2018-08-23T21:57:49.292Z,100384.38
2018-08-23T22:00:19.850Z,100384.38
2018-08-23T22:02:49.949Z,100377.59
2018-08-23T22:05:19.594Z,100367.45
2018-08-23T22:07:49.424Z,100375.11
2018-08-23T22:10:19.251Z,100373.62
2018-08-23T22:12:50.012Z,100372.27
2018-08-23T22:15:20.132Z,100371.91
2018-08-23T22:17:50.354Z,100366.83
2018-08-23T22:20:20.608Z,100366.66
2018-08-23T22:22:50.182Z,100365.81
2018-08-23T22:25:20.016Z,100365.49
2018-08-23T22:27:49.852Z,100360.44
2018-08-23T22:30:19.634Z,100368.06
2018-08-23T22:32:49.864Z,100369.61
2018-08-23T22:35:19.648Z,100373.44
2018-08-23T22:37:49.024Z,100382.70
2018-08-23T22:40:18.701Z,100371.01
2018-08-23T22:42:48.508Z,100372.41
2018-08-23T22:45:18.237Z,100370.37
2018-08-23T22:47:48.350Z,100369.05
2018-08-23T22:50:18.091Z,100365.65
2018-08-23T22:52:47.509Z,100373.97
2018-08-23T22:55:17.049Z,100363.16
2018-08-23T22:57:46.969Z,100363.02
2018-08-23T23:00:17.162Z,100362.31
2018-08-23T23:02:48.507Z,100364.08
2018-08-23T23:05:18.046Z,100366.79
2018-08-23T23:07:47.617Z,100360.71
2018-08-23T23:10:17.384Z,100363.81
2018-08-23T23:12:47.141Z,100356.35
2018-08-23T23:15:22.439Z,100357.89
2018-08-23T23:17:57.187Z,100357.05
2018-08-23T23:20:26.599Z,100353.82
2018-08-23T23:22:55.989Z,100351.26
2018-08-23T23:25:25.259Z,100346.35
2018-08-23T23:27:54.985Z,100341.95
2018-08-23T23:30:24.330Z,100343.13
2018-08-23T23:32:53.658Z,100327.75
2018-08-23T23:35:23.064Z,100324.16
2018-08-23T23:37:52.488Z,100321.45
2018-08-23T23:40:21.971Z,100319.39
2018-08-23T23:42:51.581Z,100313.09
2018-08-23T23:45:21.061Z,100311.22
2018-08-23T23:47:50.748Z,100310.20
2018-08-23T23:50:20.312Z,100307.11
2018-08-23T23:52:49.918Z,100306.13
2018-08-23T23:55:19.417Z,100310.14
2018-08-23T23:57:49.239Z,100298.75
